Warning: Javascript must be enabled to use all the features on this page!


Page Loading - Please Wait...

* We've detected you're using a mobile device. Find our Next Generation Station Page here.
Click to hideNews Bulletins
  • Have your voice heard. Have a few minutes? We're surveying users about their experience with Water Data for the Nation (WDFN). Please take a few minutes to complete our online survey.
  • See the Water Data for the Nation Blog for the latest news and updates.

Peak Streamflow for the Nation

USGS 07261500 Fourche LaFave River Near Gravelly, AR

Yell County, Arkansas
Hydrologic Unit Code 11110206
Latitude  34°52'21", Longitude  93°39'26" NAD83
Drainage area 410  square miles
Gage datum 411.15 feet above NAVD88
Output formats
Table
Graph
Tab-separated file
peakfq (watstore) format
Reselect output format
Water
Year
Date Gage
Height
(feet)
Stream-
flow
(cfs)
1939 1939-04-16 27.00 38,000
1940 1940-04-29 10.32 4,630
1941 1941-05-09 9.35 3,970
1942 1941-10-31 25.87 29,100
1943 1943-05-20 15.61 11,300
1944 1944-05-02 20.03 17,000
1945 1945-03-29 27.01 38,000
1946 1946-02-14 24.77 25,200
1947 1946-12-12 25.75 28,800
1948 1948-01-01 27.37 39,800
1949 1949-01-24 28.86 54,000
1950 1950-02-13 27.20 38,400
1951 1951-02-15 15.77 11,000
1952 1952-04-22 26.99 37,700
1953 1953-05-13 22.77 22,600
1954 1954-05-02 26.20 33,400
1955 1955-03-21 17.60 13,900
1956 1956-02-18 16.59 12,600
1957 1957-04-04 22.39 21,800
1958 1958-05-03 23.21 24,300
1959 1958-11-17 19.39 16,500
1960 1960-05-20 30.30 69,400
1961 1960-12-11 19.29 16,400
1962 1961-11-23 17.10 13,200
1963 1963-03-19 16.98 13,100
1964 1964-03-09 20.46 18,300
1965 1965-02-10 19.85 17,100
1966 1966-02-10 23.20 23,400
1967 1967-05-06 18.86 15,700
1968 1968-05-14 26.95 37,400
1969 1969-07-26 30.30 69,400
1970 1970-04-19 22.18 21,400
1971 1970-10-27 15.46 11,100
1972 1971-12-10 30.10 67,200
1973 1972-10-31 27.65 42,100
1974 1974-06-07 29.23 57,600
1975 1975-03-29 25.44 30,000
1976 1976-03-09 11.84 6,660
1977 1977-03-28 27.82 43,700
1978 1978-03-24 13.42 8,490
1979 1979-04-01 25.20 29,500
1980 1979-12-24 18.24 14,800
1981 1981-06-07 16.46 12,400
1982 1982-01-31 24.55 27,200
1983 1982-12-03 32.45 162,000
1984 1984-05-03 17.29 15,000
1985 1984-10-25 27.08 44,100
1986 1985-11-27 28.08 45,600
1987 1987-03-18 24.11 31,400
1988 1987-12-26 24.27 32,100
1989 1989-02-15 23.48 29,500
1990 1990-05-03 28.85 58,500
1991 1991-04-14 27.45 47,600
1992 1991-10-29 18.00 17,300
1993 1992-12-15 25.56 37,500
1994 1993-12-04 25.43 36,900
1995 1995-05-08 21.10 23,500
1996 1996-06-01 9.11 4,530
1997 1996-11-25 27.57 48,400
1998 1998-01-05 21.27 23,800
1999 1998-10-06 25.91 39,100
2000 2000-06-22 23.93 30,800
2001 2001-02-16 26.88 42,400
2002 2001-12-17 28.62 53,900
2003 2002-12-31 13.97 10,700
2004 2004-04-24 23.61 29,800
2005 2004-10-31 17.51 16,500
2006 2006-03-20 19.68 20,700
2007 2007-01-15 21.96 25,300
2008 2008-03-19 30.91 81,500
2009 2009-09-17 23.55 29,600
2010 2010-05-21 25.76 37,000
2011 2011-04-26 21.01 23,400
2012 2011-11-22 29.38 61,000
2013 2013-05-31 32.60 195,000
2014 2014-05-09 20.20 22,700
2015 2015-05-11 28.38 67,500
2016 2015-12-28 31.65 148,000
2017 2017-04-30 17.36 16,300
2018 2018-02-21 22.11 26,200
2019 2019-04-18 19.53 19,700
2020 2020-09-02 28.16 62,400
2022 2022-04-16 20.19 21,300